Time;durP1;ratioP1;P1;durP2;ratioP2;P2;SDS_P1;SDS_P2;PMS_P1;PMS_P2;Temp;Humidity;BMP_temperature;BMP_pressure;BME280_temperature;BME280_humidity;BME280_pressure;Samples;Min_cycle;Max_cycle;Signal;HPM_P1;HPM_P2
2021/05/14 00:02:11;;;;;;;4.55;3.70;;;14.80;74.10;;;;;;4984602;28;20026;-91
2021/05/14 00:04:37;;;;;;;3.75;3.35;;;14.80;74.10;;;;;;4981845;28;20023;-91
2021/05/14 00:07:03;;;;;;;5.18;3.97;;;14.80;73.90;;;;;;4983153;28;20145;-91
2021/05/14 00:09:29;;;;;;;5.28;4.13;;;14.80;74.20;;;;;;4986235;28;20030;-90
2021/05/14 00:11:54;;;;;;;4.13;3.42;;;14.80;74.30;;;;;;4987042;28;20027;-90
2021/05/14 00:14:20;;;;;;;4.60;3.80;;;14.80;74.30;;;;;;4982218;28;20037;-91
2021/05/14 00:16:46;;;;;;;3.45;3.15;;;14.90;74.20;;;;;;4981607;28;20113;-91
2021/05/14 00:19:11;;;;;;;3.97;3.22;;;14.80;74.20;;;;;;4982146;28;20026;-91
2021/05/14 00:21:37;;;;;;;4.38;3.15;;;14.90;74.10;;;;;;4981886;28;20073;-90
2021/05/14 00:24:03;;;;;;;3.67;3.10;;;14.90;74.00;;;;;;5000151;28;20109;-90
2021/05/14 00:26:29;;;;;;;3.63;3.25;;;14.80;73.90;;;;;;4982627;28;20040;-91
2021/05/14 00:28:55;;;;;;;4.28;3.83;;;14.80;74.00;;;;;;4982647;28;20030;-91
2021/05/14 00:31:21;;;;;;;5.10;4.28;;;14.90;73.90;;;;;;4980860;28;20478;-90
2021/05/14 00:33:46;;;;;;;5.28;4.00;;;14.80;74.00;;;;;;4982315;28;20030;-91
2021/05/14 00:36:12;;;;;;;11.85;3.90;;;14.80;74.20;;;;;;4987735;28;20026;-90
2021/05/14 00:38:38;;;;;;;4.47;3.80;;;14.90;74.80;;;;;;4993932;28;20037;-90
2021/05/14 00:41:05;;;;;;;4.07;3.20;;;14.90;74.20;;;;;;5000416;28;20034;-90
2021/05/14 00:43:31;;;;;;;3.70;3.13;;;14.90;74.20;;;;;;5001017;28;20033;-91
2021/05/14 00:45:57;;;;;;;3.95;3.40;;;14.90;74.10;;;;;;4998934;28;20037;-90
2021/05/14 00:48:23;;;;;;;3.45;3.15;;;14.90;74.20;;;;;;4997633;28;20041;-91
2021/05/14 00:50:49;;;;;;;4.10;2.90;;;14.80;74.00;;;;;;4981375;28;20034;-90
2021/05/14 00:53:14;;;;;;;3.78;2.78;;;14.80;73.90;;;;;;4980892;28;20077;-91
2021/05/14 00:55:40;;;;;;;3.08;2.70;;;14.90;74.10;;;;;;4981728;28;20033;-91
2021/05/14 00:58:06;;;;;;;3.40;2.92;;;14.90;74.00;;;;;;4998208;28;20497;-90
2021/05/14 01:00:32;;;;;;;3.80;2.72;;;14.90;74.00;;;;;;4982509;28;20529;-90
2021/05/14 01:02:57;;;;;;;5.95;3.20;;;14.90;74.10;;;;;;4983691;28;20023;-91
2021/05/14 01:05:24;;;;;;;3.50;2.60;;;14.90;74.00;;;;;;4982814;28;20449;-91
2021/05/14 01:07:54;;;;;;;2.78;2.33;;;14.90;74.00;;;;;;4981158;28;20047;-91
2021/05/14 01:10:20;;;;;;;3.47;2.90;;;14.90;73.90;;;;;;4989304;28;20069;-91
2021/05/14 01:12:46;;;;;;;3.42;2.90;;;14.90;73.90;;;;;;4989810;28;20022;-90
2021/05/14 01:15:13;;;;;;;3.90;2.65;;;14.90;74.00;;;;;;4984297;28;20030;-91
2021/05/14 01:17:38;;;;;;;2.83;2.35;;;14.80;73.80;;;;;;4999328;28;20054;-91
2021/05/14 01:20:05;;;;;;;3.20;2.58;;;14.80;73.80;;;;;;4980774;28;20049;-91
2021/05/14 01:22:31;;;;;;;3.53;2.88;;;14.80;73.80;;;;;;4981793;28;20081;-90
2021/05/14 01:24:56;;;;;;;3.00;2.38;;;14.80;73.80;;;;;;4997875;28;20101;-90
2021/05/14 01:27:22;;;;;;;7.13;3.10;;;14.80;73.90;;;;;;4981505;28;20038;-91
2021/05/14 01:29:48;;;;;;;3.08;2.53;;;14.70;74.00;;;;;;4981532;28;20374;-91
2021/05/14 01:32:16;;;;;;;3.42;2.88;;;14.70;74.10;;;;;;4980243;28;20112;-91
2021/05/14 01:34:42;;;;;;;3.53;2.92;;;14.70;74.20;;;;;;4980978;28;20480;-91
2021/05/14 01:37:08;;;;;;;4.03;2.88;;;14.70;74.20;;;;;;4997872;28;20027;-91
2021/05/14 01:39:34;;;;;;;5.05;3.47;;;14.70;74.30;;;;;;4980256;28;20030;-91
2021/05/14 01:42:01;;;;;;;3.78;3.10;;;14.70;74.20;;;;;;4982589;28;20370;-91
2021/05/14 01:44:27;;;;;;;4.13;3.20;;;14.70;74.30;;;;;;4998194;28;20030;-91
2021/05/14 01:46:53;;;;;;;4.93;3.17;;;14.70;74.40;;;;;;4997608;28;20034;-91
2021/05/14 01:49:19;;;;;;;4.28;3.08;;;14.70;74.40;;;;;;4981392;28;20026;-91
2021/05/14 01:51:45;;;;;;;3.58;3.08;;;14.70;75.20;;;;;;4981896;28;20029;-91
2021/05/14 01:54:11;;;;;;;4.13;3.30;;;14.60;74.60;;;;;;4999924;28;20037;-91
2021/05/14 01:56:37;;;;;;;4.10;3.22;;;14.60;74.60;;;;;;4982207;28;20121;-91
2021/05/14 01:59:03;;;;;;;3.83;3.28;;;14.60;74.60;;;;;;4981260;28;20062;-91
2021/05/14 02:01:29;;;;;;;4.53;4.03;;;14.50;74.60;;;;;;4979619;28;20037;-90
2021/05/14 02:03:55;;;;;;;4.20;3.58;;;14.50;74.80;;;;;;4979931;28;20022;-91
2021/05/14 02:06:21;;;;;;;4.00;3.53;;;14.50;74.90;;;;;;4980350;28;20034;-91
2021/05/14 02:08:47;;;;;;;4.78;3.47;;;14.50;75.10;;;;;;4979687;28;20030;-91
2021/05/14 02:11:13;;;;;;;4.70;4.22;;;14.40;75.20;;;;;;4979676;28;20121;-90
2021/05/14 02:13:40;;;;;;;8.13;5.22;;;14.40;75.40;;;;;;4980431;28;20038;-91
2021/05/14 02:16:07;;;;;;;6.68;5.22;;;14.30;76.00;;;;;;4979980;28;20061;-91
2021/05/14 02:18:35;;;;;;;8.02;5.60;;;14.30;76.00;;;;;;4980649;28;20038;-90
2021/05/14 02:21:01;;;;;;;8.82;5.65;;;14.30;76.50;;;;;;4997400;28;20027;-90
2021/05/14 02:23:27;;;;;;;7.05;5.35;;;14.20;76.90;;;;;;4980452;28;20073;-91
2021/05/14 02:25:53;;;;;;;7.70;5.45;;;14.20;77.10;;;;;;4999827;28;20509;-90
2021/05/14 02:28:19;;;;;;;6.35;5.45;;;14.10;77.20;;;;;;4990801;28;20037;-90
2021/05/14 02:30:44;;;;;;;8.90;5.13;;;14.10;77.60;;;;;;5000961;28;20014;-90
2021/05/14 02:33:10;;;;;;;6.53;5.78;;;14.10;77.70;;;;;;5001512;28;20035;-91
2021/05/14 02:35:36;;;;;;;6.57;5.15;;;14.10;78.00;;;;;;4997698;28;20029;-91
2021/05/14 02:38:06;;;;;;;7.88;5.68;;;14.10;78.20;;;;;;5001473;28;20031;-91
2021/05/14 02:40:33;;;;;;;6.18;5.05;;;14.10;78.40;;;;;;4989490;28;20049;-91
2021/05/14 02:42:58;;;;;;;6.82;4.93;;;14.10;78.70;;;;;;4985956;28;20034;-90
2021/05/14 02:45:25;;;;;;;6.25;5.22;;;14.10;78.80;;;;;;4987567;28;20034;-90
2021/05/14 02:47:51;;;;;;;5.68;4.82;;;14.10;79.10;;;;;;5004507;28;20081;-91
2021/05/14 02:50:17;;;;;;;6.00;4.30;;;14.10;79.00;;;;;;4984037;28;20022;-90
2021/05/14 02:52:43;;;;;;;5.40;4.32;;;14.20;79.00;;;;;;4984312;28;20034;-91
2021/05/14 02:55:10;;;;;;;6.80;4.60;;;14.20;79.20;;;;;;4985177;28;20053;-91
2021/05/14 02:57:35;;;;;;;6.00;4.20;;;14.20;79.40;;;;;;4984723;28;20080;-90
2021/05/14 03:00:05;;;;;;;5.22;4.00;;;14.20;79.70;;;;;;4984386;28;20022;-91
2021/05/14 03:02:31;;;;;;;5.20;4.18;;;14.30;79.40;;;;;;4984173;28;20068;-90
2021/05/14 03:04:56;;;;;;;4.93;3.70;;;14.30;79.60;;;;;;4984518;28;20027;-91
2021/05/14 03:07:22;;;;;;;4.43;3.40;;;14.30;79.60;;;;;;4984162;28;20429;-91
2021/05/14 03:09:48;;;;;;;4.15;3.42;;;14.30;79.60;;;;;;4989759;28;20531;-90
2021/05/14 03:12:14;;;;;;;4.13;3.72;;;14.30;79.50;;;;;;4994938;28;20069;-90
2021/05/14 03:14:40;;;;;;;3.80;3.28;;;14.30;79.80;;;;;;4988454;28;20030;-91
2021/05/14 03:17:05;;;;;;;6.43;3.33;;;14.30;79.80;;;;;;4988612;28;20029;-90
2021/05/14 03:19:31;;;;;;;7.53;3.83;;;14.30;79.90;;;;;;4986283;28;20030;-90
2021/05/14 03:21:57;;;;;;;4.50;3.63;;;14.30;80.00;;;;;;4985236;28;20046;-90
2021/05/14 03:24:22;;;;;;;3.60;3.17;;;14.30;80.10;;;;;;4988888;28;20125;-90
2021/05/14 03:26:52;;;;;;;4.18;3.40;;;14.30;80.20;;;;;;4989930;28;20033;-90
2021/05/14 03:29:18;;;;;;;2.97;2.65;;;14.30;80.20;;;;;;4988811;28;20041;-90
2021/05/14 03:31:43;;;;;;;5.00;3.75;;;14.30;80.30;;;;;;5003077;28;20026;-91
2021/05/14 03:34:09;;;;;;;4.22;3.50;;;14.40;80.40;;;;;;4984831;28;20022;-91
2021/05/14 03:36:35;;;;;;;4.45;3.85;;;14.40;80.30;;;;;;5002866;28;20026;-91
2021/05/14 03:39:00;;;;;;;4.10;3.45;;;14.50;80.20;;;;;;4988183;28;20034;-90
2021/05/14 03:43:54;;;;;;;3.63;3.20;;;14.60;79.90;;;;;;5001231;28;20493;-91
2021/05/14 03:46:20;;;;;;;3.65;3.35;;;14.70;79.60;;;;;;4984284;28;20030;-91
2021/05/14 03:48:46;;;;;;;3.75;3.10;;;14.80;79.20;;;;;;4983288;28;20041;-90
2021/05/14 03:51:12;;;;;;;2.88;2.67;;;14.90;78.80;;;;;;4984118;28;20026;-91
2021/05/14 03:53:37;;;;;;;3.25;2.95;;;15.00;79.10;;;;;;4983460;28;20026;-91
2021/05/14 03:56:03;;;;;;;4.20;2.70;;;15.00;78.20;;;;;;4983951;28;20094;-90
2021/05/14 03:58:29;;;;;;;2.97;2.55;;;15.20;77.90;;;;;;4982549;28;20041;-91
2021/05/14 04:00:55;;;;;;;3.80;2.90;;;15.20;77.60;;;;;;4983286;28;20485;-91
2021/05/14 04:03:22;;;;;;;3.40;2.88;;;15.30;77.20;;;;;;4984356;28;20058;-91
2021/05/14 04:05:49;;;;;;;3.33;3.03;;;15.40;76.80;;;;;;4983235;28;20413;-91
2021/05/14 04:08:15;;;;;;;3.85;2.90;;;15.40;76.30;;;;;;4983509;28;20046;-91
2021/05/14 04:16:07;;;;;;;4.85;2.85;;;15.60;75.40;;;;;;5015164;28;20037;-89
2021/05/14 04:18:36;;;;;;;3.72;2.95;;;15.60;75.40;;;;;;4999569;28;20034;-90
2021/05/14 04:21:02;;;;;;;3.03;2.60;;;15.60;75.40;;;;;;4999863;28;20097;-91
2021/05/14 04:23:28;;;;;;;4.72;2.85;;;15.70;75.30;;;;;;4997895;28;20030;-91
2021/05/14 04:25:54;;;;;;;4.03;3.00;;;15.80;75.20;;;;;;5000182;28;20098;-90
2021/05/14 04:28:19;;;;;;;3.70;3.10;;;15.90;75.00;;;;;;4992218;28;20038;-91
2021/05/14 04:30:45;;;;;;;3.55;2.75;;;15.90;74.60;;;;;;5000450;28;20461;-91
2021/05/14 04:33:11;;;;;;;3.72;3.33;;;16.00;74.60;;;;;;4982190;28;20030;-91
2021/05/14 04:35:36;;;;;;;3.30;3.00;;;16.10;74.50;;;;;;4981859;28;20030;-91
2021/05/14 04:38:02;;;;;;;7.72;3.70;;;16.30;74.60;;;;;;4984328;28;20077;-91
2021/05/14 04:40:28;;;;;;;3.55;2.88;;;16.40;74.20;;;;;;4982399;28;20077;-91
2021/05/14 04:43:02;;;;;;;3.67;3.15;;;16.60;73.60;;;;;;4981640;28;20126;-91
2021/05/14 04:45:28;;;;;;;4.05;2.92;;;16.60;73.10;;;;;;4982646;28;20026;-90
2021/05/14 04:47:54;;;;;;;4.35;3.10;;;16.70;72.60;;;;;;4983935;28;20041;-90
2021/05/14 04:50:19;;;;;;;6.60;3.47;;;16.70;72.10;;;;;;4981657;28;20026;-90
2021/05/14 04:52:46;;;;;;;3.35;2.95;;;16.60;71.90;;;;;;4982045;28;20037;-90
2021/05/14 04:55:13;;;;;;;3.38;2.83;;;16.60;72.10;;;;;;4982227;28;20037;-90
2021/05/14 04:57:39;;;;;;;4.45;3.08;;;16.50;72.10;;;;;;4982467;28;20049;-90
2021/05/14 05:00:06;;;;;;;3.03;2.72;;;16.50;72.30;;;;;;4981861;28;20461;-90
2021/05/14 05:02:33;;;;;;;4.75;2.92;;;16.50;72.40;;;;;;4980906;28;20068;-90
2021/05/14 05:05:00;;;;;;;3.90;2.90;;;16.60;72.40;;;;;;4999229;28;20108;-90
2021/05/14 05:07:26;;;;;;;2.90;2.20;;;16.70;72.50;;;;;;4980050;28;20375;-90
2021/05/14 05:09:52;;;;;;;2.55;2.35;;;16.80;72.40;;;;;;4982469;28;20037;-90
2021/05/14 05:12:17;;;;;;;2.90;2.50;;;16.90;72.20;;;;;;4980629;28;20084;-90
2021/05/14 05:14:43;;;;;;;3.75;2.97;;;17.00;71.90;;;;;;4980742;28;20086;-90
2021/05/14 05:17:09;;;;;;;3.20;2.60;;;17.10;71.60;;;;;;4980929;28;20106;-90
2021/05/14 05:19:37;;;;;;;4.47;3.15;;;17.30;71.60;;;;;;4982552;28;20504;-90
2021/05/14 05:22:03;;;;;;;3.70;3.33;;;17.50;71.60;;;;;;4987944;28;20126;-90
2021/05/14 05:24:29;;;;;;;4.85;3.17;;;17.60;71.20;;;;;;4987914;28;20033;-90
2021/05/14 05:26:55;;;;;;;3.55;3.25;;;17.80;70.80;;;;;;5002582;28;20018;-90
2021/05/14 05:29:23;;;;;;;4.78;2.95;;;17.90;70.50;;;;;;4982620;28;20121;-91
2021/05/14 05:31:49;;;;;;;3.42;3.03;;;18.10;70.40;;;;;;5001522;28;20454;-90
2021/05/14 05:34:15;;;;;;;3.83;3.35;;;18.30;69.90;;;;;;4985007;28;20033;-90
2021/05/14 05:36:40;;;;;;;5.72;3.78;;;18.50;69.40;;;;;;4986577;28;20034;-90
2021/05/14 05:39:09;;;;;;;3.83;3.20;;;18.60;69.30;;;;;;4988123;28;20525;-90
2021/05/14 05:41:35;;;;;;;5.38;4.13;;;18.70;69.20;;;;;;4985983;28;20045;-90
2021/05/14 05:44:01;;;;;;;6.18;4.15;;;18.80;68.80;;;;;;4983531;28;20064;-90
2021/05/14 05:46:26;;;;;;;3.63;3.33;;;18.90;68.50;;;;;;4982608;28;20426;-90
2021/05/14 05:48:52;;;;;;;3.50;3.20;;;18.90;68.40;;;;;;4983792;28;20038;-89
2021/05/14 05:51:18;;;;;;;5.63;3.85;;;19.00;68.30;;;;;;4983274;28;20027;-90
2021/05/14 05:53:44;;;;;;;4.20;3.40;;;19.10;67.70;;;;;;4980677;28;20389;-90
2021/05/14 05:56:10;;;;;;;7.78;3.72;;;19.20;67.50;;;;;;4998414;28;20129;-91
2021/05/14 05:58:35;;;;;;;5.68;3.42;;;19.20;67.20;;;;;;4982169;28;20111;-90
2021/05/14 06:01:02;;;;;;;4.05;3.60;;;19.20;67.10;;;;;;4980641;28;20062;-90
2021/05/14 06:03:28;;;;;;;5.13;4.15;;;19.20;67.00;;;;;;4981954;28;20030;-90
2021/05/14 06:05:54;;;;;;;6.22;3.30;;;19.20;67.20;;;;;;4981930;28;20050;-90
2021/05/14 06:08:20;;;;;;;3.83;2.88;;;19.40;67.50;;;;;;4983337;28;20393;-90
2021/05/14 06:10:49;;;;;;;3.97;3.50;;;19.50;67.30;;;;;;4980919;28;20034;-90
2021/05/14 06:13:15;;;;;;;4.80;3.63;;;19.70;66.90;;;;;;4983331;28;20037;-90
2021/05/14 06:15:41;;;;;;;3.30;3.00;;;19.80;66.20;;;;;;4984037;28;20377;-91
2021/05/14 06:18:15;;;;;;;3.63;2.92;;;19.80;66.10;;;;;;4981149;28;20498;-90
2021/05/14 06:20:45;;;;;;;4.20;3.55;;;19.90;65.90;;;;;;4980142;28;20037;-91
2021/05/14 06:23:13;;;;;;;4.88;3.92;;;20.00;65.70;;;;;;4999289;28;20041;-91
2021/05/14 06:25:39;;;;;;;6.70;3.38;;;20.00;65.10;;;;;;4979793;28;20033;-90
2021/05/14 06:28:06;;;;;;;5.85;3.63;;;19.90;65.10;;;;;;4989277;28;20367;-90
2021/05/14 06:30:32;;;;;;;6.25;3.33;;;19.90;65.30;;;;;;4984671;28;20090;-90
2021/05/14 06:32:58;;;;;;;4.82;3.20;;;19.80;65.60;;;;;;4980917;28;20080;-90
2021/05/14 06:35:24;;;;;;;5.85;3.78;;;19.80;65.10;;;;;;4979540;28;20034;-90
2021/05/14 06:37:51;;;;;;;5.43;3.60;;;19.80;65.30;;;;;;4979845;28;20112;-90
2021/05/14 06:40:17;;;;;;;5.25;4.00;;;19.80;65.20;;;;;;4980516;28;20037;-91
2021/05/14 06:42:43;;;;;;;5.03;3.67;;;19.80;65.10;;;;;;4981847;28;20100;-90
2021/05/14 06:45:09;;;;;;;3.92;3.53;;;19.80;64.90;;;;;;4980103;28;20121;-91
2021/05/14 06:47:36;;;;;;;5.68;3.70;;;19.80;64.80;;;;;;4989194;28;20349;-89
2021/05/14 06:50:04;;;;;;;5.65;3.45;;;19.80;64.80;;;;;;4995308;28;20022;-91
2021/05/14 06:52:34;;;;;;;3.42;3.05;;;19.80;64.70;;;;;;4995199;28;20148;-94
2021/05/14 06:55:02;;;;;;;6.10;3.70;;;19.80;64.80;;;;;;5009595;28;20059;-91
2021/05/14 06:57:28;;;;;;;5.13;3.40;;;19.80;64.80;;;;;;5013098;28;20061;-92
2021/05/14 06:59:53;;;;;;;6.20;4.63;;;19.80;64.90;;;;;;5016255;28;20034;-90
2021/05/14 07:02:19;;;;;;;6.97;4.35;;;19.80;65.10;;;;;;5015249;28;20026;-92
2021/05/14 07:04:45;;;;;;;4.10;3.55;;;19.80;65.20;;;;;;5014645;28;20025;-93
2021/05/14 07:07:12;;;;;;;4.45;3.72;;;19.90;65.50;;;;;;5012395;28;20046;-91
2021/05/14 07:09:38;;;;;;;5.50;3.63;;;20.10;65.10;;;;;;5012448;28;20026;-92
2021/05/14 07:12:04;;;;;;;4.43;3.65;;;20.30;64.60;;;;;;5009295;28;20049;-93
2021/05/14 07:14:30;;;;;;;5.93;4.45;;;20.50;64.00;;;;;;5006137;28;20026;-92
2021/05/14 07:16:59;;;;;;;4.60;3.45;;;20.60;63.70;;;;;;5007846;28;20026;-92
2021/05/14 07:19:26;;;;;;;6.30;3.65;;;20.70;63.60;;;;;;5008813;28;20030;-93
2021/05/14 07:21:52;;;;;;;4.13;3.25;;;20.90;63.60;;;;;;5007253;28;20053;-92
2021/05/14 07:24:18;;;;;;;6.53;5.65;;;21.00;63.40;;;;;;5003662;28;20025;-92
2021/05/14 07:26:44;;;;;;;5.93;4.35;;;21.20;62.90;;;;;;5008976;28;20526;-92
2021/05/14 07:29:10;;;;;;;4.85;4.30;;;21.40;62.20;;;;;;5013806;28;20472;-92
2021/05/14 07:31:36;;;;;;;4.53;3.80;;;21.50;61.60;;;;;;5011798;28;20037;-92
2021/05/14 07:34:02;;;;;;;4.78;4.30;;;21.40;61.40;;;;;;5029810;28;20033;-92
2021/05/14 07:36:28;;;;;;;7.63;4.38;;;21.50;61.40;;;;;;5010711;28;20093;-92
2021/05/14 07:38:54;;;;;;;5.65;4.30;;;21.50;61.20;;;;;;5009669;28;20448;-92
2021/05/14 07:41:20;;;;;;;5.47;4.60;;;21.60;61.10;;;;;;5010656;28;20040;-91
2021/05/14 07:43:46;;;;;;;7.15;4.80;;;21.60;60.80;;;;;;5008100;28;20047;-91
2021/05/14 07:46:12;;;;;;;4.95;3.95;;;21.60;60.60;;;;;;5007185;28;20079;-92
2021/05/14 07:48:38;;;;;;;6.10;4.55;;;21.50;60.40;;;;;;5023971;28;20025;-92
2021/05/14 07:51:04;;;;;;;5.05;3.60;;;21.40;60.50;;;;;;5006686;28;20416;-92
2021/05/14 07:53:30;;;;;;;3.55;3.17;;;21.40;60.70;;;;;;5025747;28;20022;-92
2021/05/14 07:55:56;;;;;;;5.82;4.50;;;21.40;60.70;;;;;;5007019;28;20403;-92
2021/05/14 07:58:25;;;;;;;5.88;4.85;;;21.40;60.50;;;;;;5011834;28;20116;-91
2021/05/14 08:00:51;;;;;;;5.22;4.35;;;21.50;60.20;;;;;;5010628;28;20356;-93
2021/05/14 08:03:19;;;;;;;6.80;5.13;;;21.60;59.70;;;;;;5006358;28;20122;-93
2021/05/14 08:05:50;;;;;;;6.40;4.82;;;21.60;59.10;;;;;;5005240;28;20076;-92
2021/05/14 08:08:18;;;;;;;4.20;3.80;;;21.60;58.60;;;;;;5005505;28;20076;-92
2021/05/14 08:10:44;;;;;;;8.98;5.18;;;21.60;58.60;;;;;;5022106;28;20022;-92
2021/05/14 08:13:10;;;;;;;5.05;4.38;;;21.60;58.90;;;;;;5003916;28;20030;-92
2021/05/14 08:15:38;;;;;;;4.93;4.25;;;21.70;58.90;;;;;;5004871;28;20033;-92
2021/05/14 08:18:04;;;;;;;5.40;4.50;;;21.80;58.70;;;;;;5024778;28;20068;-92
2021/05/14 08:20:30;;;;;;;4.15;3.75;;;21.80;58.70;;;;;;5008439;28;20030;-92
2021/05/14 08:22:59;;;;;;;4.70;3.78;;;22.00;58.70;;;;;;5008181;28;20484;-92
2021/05/14 08:25:27;;;;;;;5.07;4.57;;;22.10;58.40;;;;;;5010220;28;20116;-92
2021/05/14 08:27:58;;;;;;;5.57;4.60;;;22.20;58.10;;;;;;5026628;28;20034;-93
2021/05/14 08:30:24;;;;;;;5.70;4.25;;;22.30;57.40;;;;;;5010615;28;20037;-93
2021/05/14 08:32:51;;;;;;;5.75;4.90;;;22.40;57.50;;;;;;5009190;28;20093;-93
2021/05/14 08:35:17;;;;;;;4.80;4.30;;;22.50;57.20;;;;;;5006290;28;20485;-93
2021/05/14 08:37:46;;;;;;;6.35;5.00;;;22.60;56.70;;;;;;5019421;28;20030;-93
2021/05/14 08:40:12;;;;;;;6.50;4.57;;;22.70;56.60;;;;;;4980079;28;20030;-94
2021/05/14 08:42:43;;;;;;;5.80;4.13;;;22.70;56.00;;;;;;4981786;28;20026;-93
2021/05/14 08:45:12;;;;;;;6.07;5.03;;;22.70;55.70;;;;;;4979644;28;20038;-93
2021/05/14 08:47:39;;;;;;;6.47;4.80;;;22.60;55.00;;;;;;4984778;28;20042;-91
2021/05/14 08:50:07;;;;;;;4.30;3.90;;;22.50;54.90;;;;;;4981347;28;20030;-93
2021/05/14 08:55:06;;;;;;;5.07;4.13;;;22.30;55.30;;;;;;5000510;28;20101;-91
2021/05/14 08:57:32;;;;;;;6.07;4.35;;;22.30;54.90;;;;;;4983812;28;20030;-92
2021/05/14 09:00:03;;;;;;;4.85;3.90;;;22.30;55.20;;;;;;4984632;28;20022;-92
2021/05/14 09:02:32;;;;;;;4.88;4.10;;;22.30;54.70;;;;;;4994398;28;20090;-93
2021/05/14 09:04:57;;;;;;;4.18;3.78;;;22.20;54.90;;;;;;4999501;28;20051;-92
2021/05/14 09:07:23;;;;;;;5.15;4.32;;;22.20;55.30;;;;;;4996084;28;20018;-93
2021/05/14 09:10:10;;;;;;;6.80;4.20;;;22.30;55.30;;;;;;4997594;28;20085;-91
2021/05/14 09:12:38;;;;;;;4.78;4.28;;;22.40;54.90;;;;;;4992349;28;20053;-91
2021/05/14 09:15:22;;;;;;;4.85;3.83;;;22.50;54.80;;;;;;4984476;28;20026;-92
2021/05/14 09:21:39;;;;;;;6.15;4.63;;;22.60;54.20;;;;;;4983215;28;20041;-94
2021/05/14 09:24:08;;;;;;;5.20;4.38;;;22.60;53.70;;;;;;4990244;28;20071;-93
2021/05/14 09:29:40;;;;;;;;;;;22.50;53.80;;;;;;4967731;28;20050;-92
2021/05/14 09:32:34;;;;;;;5.60;4.85;;;22.50;53.00;;;;;;4974500;28;20349;-93
2021/05/14 09:35:37;;;;;;;7.20;4.80;;;22.50;51.80;;;;;;4972204;28;20046;-93
2021/05/14 09:38:12;;;;;;;6.25;4.45;;;22.40;52.50;;;;;;4963461;28;20030;-91
2021/05/14 09:40:40;;;;;;;5.45;4.07;;;22.30;53.00;;;;;;4989670;28;20076;-93
2021/05/14 09:43:26;;;;;;;7.25;4.57;;;22.30;52.90;;;;;;4983367;28;20126;-92
2021/05/14 09:46:00;;;;;;;5.22;4.18;;;22.20;52.80;;;;;;4964579;28;20122;-93
2021/05/14 09:49:17;;;;;;;;;;;;;;;;;;;;;
2021/05/14 09:55:03;;;;;;;5.63;3.80;;;22.50;53.10;;;;;;4947978;28;20387;-90
2021/05/14 09:58:01;;;;;;;4.65;3.58;;;22.70;53.00;;;;;;4952530;28;20490;-93
2021/05/14 10:00:44;;;;;;;3.80;3.08;;;22.80;52.90;;;;;;4964905;28;20551;-92
2021/05/14 10:03:24;;;;;;;4.22;3.00;;;22.90;53.40;;;;;;4960519;29;20023;-93
2021/05/14 10:05:57;;;;;;;8.88;4.03;;;23.00;52.80;;;;;;4968772;29;20035;-92
2021/05/14 10:08:48;;;;;;;3.22;2.92;;;23.10;52.40;;;;;;4970538;28;20031;-91
2021/05/14 10:15:36;;;;;;;3.60;3.00;;;23.30;52.20;;;;;;4972895;28;20029;-93
2021/05/14 10:25:20;;;;;;;;;;;;;;;;;;;;;
2021/05/14 10:28:25;;;;;;;6.10;3.85;;;23.10;52.20;;;;;;4898342;29;20033;-93
2021/05/14 10:31:15;;;;;;;5.63;3.45;;;23.20;52.50;;;;;;4898103;29;20493;-91
2021/05/14 10:34:35;;;;;;;;;;;;;;;;;;;;;
2021/05/14 10:37:10;;;;;;;6.10;3.65;;;23.70;51.60;;;;;;4893174;29;20028;-93
2021/05/14 10:39:44;;;;;;;6.55;3.72;;;23.80;51.70;;;;;;4951040;28;20034;-91
2021/05/14 10:42:57;;;;;;;4.70;4.18;;;23.90;51.50;;;;;;4947147;28;20034;-93
2021/05/14 10:45:45;;;;;;;4.50;3.70;;;24.00;50.70;;;;;;4959855;28;20030;-93
2021/05/14 10:48:55;;;;;;;4.35;3.55;;;24.10;50.90;;;;;;4947948;28;20038;-94
2021/05/14 10:58:50;;;;;;;4.82;4.20;;;24.30;50.40;;;;;;4934708;28;20095;-92
2021/05/14 11:29:30;;;;;;;4.93;3.88;;;25.30;48.30;;;;;;4906922;29;20059;-90
2021/05/14 11:32:17;;;;;;;6.88;3.03;;;25.40;47.30;;;;;;4926015;29;20023;-91
2021/05/14 11:35:26;;;;;;;2.83;2.63;;;25.50;48.40;;;;;;4939414;29;20551;-89
2021/05/14 11:38:20;;;;;;;3.00;2.70;;;25.60;47.20;;;;;;4923536;29;20086;-88
2021/05/14 11:41:26;;;;;;;;;;;;;;;;;;;;;
2021/05/14 11:47:24;;;;;;;2.03;1.90;;;26.10;46.10;;;;;;4925117;28;20027;-91
2021/05/14 11:50:02;;;;;;;;;;;;;;;;;;;;;
2021/05/14 12:02:58;;;;;;;;;;;;;;;;;;;;;
2021/05/14 12:05:31;;;;;;;2.42;2.22;;;26.50;45.00;;;;;;4962074;29;20114;-93
2021/05/14 12:11:16;;;;;;;2.97;2.63;;;26.90;44.20;;;;;;4903791;29;20385;-92
2021/05/14 12:17:57;;;;;;;;;;;;;;;;;;;;;
2021/05/14 12:48:39;;;;;;;;;;;;;;;;;;;;;
2021/05/14 13:08:56;;;;;;;;;;;;;;;;;;;;;
2021/05/14 13:15:21;;;;;;;;;;;;;;;;;;;;;
2021/05/14 13:22:19;;;;;;;2.22;2.03;;;28.50;40.20;;;;;;4910232;29;20062;-90
2021/05/14 13:25:14;;;;;;;2.88;1.88;;;29.80;37.20;;;;;;4927630;29;20032;-92
2021/05/14 13:42:48;;;;;;;;;;;;;;;;;;;;;
2021/05/14 13:45:43;;;;;;;;;;;;;;;;;;;;;
2021/05/14 14:07:33;;;;;;;;;;;;;;;;;;;;;
2021/05/14 14:13:40;;;;;;;;;;;;;;;;;;;;;
2021/05/14 14:16:16;;;;;;;2.22;2.03;;;33.30;30.50;;;;;;4737134;30;20067;-92
2021/05/14 14:22:24;;;;;;;2.00;1.60;;;31.40;30.90;;;;;;4755786;30;20093;-92
2021/05/14 14:24:50;;;;;;;1.88;1.77;;;30.30;31.80;;;;;;4743430;30;20048;-91
2021/05/14 14:27:42;;;;;;;2.20;1.48;;;29.60;32.10;;;;;;4761266;30;20036;-94
2021/05/14 14:33:16;;;;;;;4.60;1.83;;;28.70;33.00;;;;;;4805046;29;20054;-94
2021/05/14 14:36:07;;;;;;;4.10;2.00;;;28.20;33.30;;;;;;4804035;30;20043;-93
2021/05/14 14:39:22;;;;;;;1.77;1.67;;;27.80;33.50;;;;;;4804408;29;20047;-93
2021/05/14 14:41:57;;;;;;;2.35;2.00;;;27.50;33.80;;;;;;4813153;29;20168;-92
2021/05/14 14:44:59;;;;;;;3.30;1.75;;;27.10;34.10;;;;;;4870670;29;20100;-92
2021/05/14 14:47:39;;;;;;;3.72;1.63;;;27.10;34.50;;;;;;4906828;29;20119;-92
2021/05/14 14:50:51;;;;;;;3.90;2.00;;;27.10;34.60;;;;;;4883890;29;20362;-92
2021/05/14 14:54:04;;;;;;;2.17;1.90;;;27.30;34.90;;;;;;4917714;29;20028;-93
2021/05/14 14:57:12;;;;;;;2.17;1.98;;;28.10;33.70;;;;;;4872847;29;20490;-91
2021/05/14 15:00:21;;;;;;;2.08;1.85;;;29.00;34.50;;;;;;4924314;29;20071;-91
2021/05/14 15:03:02;;;;;;;2.25;1.95;;;30.20;32.80;;;;;;4915670;29;20136;-91
2021/05/14 15:05:37;;;;;;;1.85;1.70;;;31.00;32.40;;;;;;4904536;29;20064;-91
2021/05/14 15:11:15;;;;;;;4.47;1.85;;;32.30;31.10;;;;;;4915985;29;20036;-91
2021/05/14 15:13:40;;;;;;;3.25;1.60;;;32.70;30.40;;;;;;4930750;29;20052;-92
2021/05/14 15:16:14;;;;;;;3.10;1.73;;;33.00;30.10;;;;;;4929155;29;20020;-90
2021/05/14 15:18:42;;;;;;;1.90;1.80;;;33.30;29.70;;;;;;4896934;29;20483;-91
2021/05/14 15:21:12;;;;;;;2.08;1.67;;;33.50;29.40;;;;;;4918309;29;20033;-92
2021/05/14 15:23:38;;;;;;;3.33;1.60;;;33.70;29.30;;;;;;4943821;29;20039;-90
2021/05/14 15:26:17;;;;;;;1.92;1.83;;;33.80;28.80;;;;;;4928221;29;20051;-90
2021/05/14 15:28:48;;;;;;;2.03;1.92;;;33.80;28.20;;;;;;4938019;29;20043;-91
2021/05/14 15:31:23;;;;;;;1.90;1.80;;;33.50;28.10;;;;;;4945042;29;20024;-91
2021/05/14 15:33:54;;;;;;;3.30;1.60;;;33.20;28.10;;;;;;4960193;29;20098;-92
2021/05/14 15:36:41;;;;;;;2.45;1.52;;;33.10;28.20;;;;;;4950822;29;20114;-89
2021/05/14 15:39:34;;;;;;;2.08;1.88;;;33.00;28.40;;;;;;4970540;29;20051;-91
2021/05/14 15:42:08;;;;;;;3.10;1.95;;;33.10;28.40;;;;;;4950284;29;20049;-92
2021/05/14 15:45:20;;;;;;;2.65;1.85;;;33.30;28.40;;;;;;4942194;29;20023;-91
2021/05/14 15:47:49;;;;;;;2.10;1.90;;;33.10;28.00;;;;;;4950894;29;20031;-92
2021/05/14 15:50:27;;;;;;;2.33;1.40;;;32.90;28.10;;;;;;4950393;29;20023;-92
2021/05/14 15:53:26;;;;;;;2.35;1.98;;;32.80;28.30;;;;;;4934609;29;20031;-92
2021/05/14 15:55:55;;;;;;;2.83;1.70;;;32.70;28.30;;;;;;4950443;29;20031;-92
2021/05/14 15:58:25;;;;;;;2.53;1.60;;;32.50;28.30;;;;;;4959612;28;20043;-92
2021/05/14 16:00:57;;;;;;;4.07;1.90;;;32.40;28.60;;;;;;4954536;28;20031;-91
2021/05/14 16:03:35;;;;;;;3.45;1.63;;;32.30;28.70;;;;;;4979258;28;20080;-91
2021/05/14 16:06:09;;;;;;;2.38;1.75;;;31.70;28.50;;;;;;4941627;29;20042;-91
2021/05/14 16:08:39;;;;;;;2.15;1.90;;;30.90;28.80;;;;;;4947488;28;20078;-91
2021/05/14 16:11:13;;;;;;;2.08;1.70;;;29.90;29.20;;;;;;4980185;28;20019;-90
2021/05/14 16:13:43;;;;;;;4.18;1.80;;;28.80;29.80;;;;;;4979785;28;20023;-90
2021/05/14 16:16:09;;;;;;;1.40;1.30;;;28.00;30.40;;;;;;4962549;28;20033;-90
2021/05/14 16:18:37;;;;;;;1.85;1.63;;;27.30;31.00;;;;;;4960887;28;20026;-91
2021/05/14 16:21:02;;;;;;;4.25;1.67;;;26.70;31.60;;;;;;4961701;28;20031;-91
2021/05/14 16:23:28;;;;;;;2.33;1.65;;;26.20;32.00;;;;;;4965710;28;20037;-90
2021/05/14 16:26:19;;;;;;;3.75;2.17;;;25.90;32.60;;;;;;4946324;28;20106;-90
2021/05/14 16:28:47;;;;;;;2.33;1.88;;;25.50;33.00;;;;;;4958086;28;20050;-90
2021/05/14 16:31:13;;;;;;;3.47;2.13;;;25.10;33.40;;;;;;4960892;28;20027;-89
2021/05/14 16:33:38;;;;;;;1.35;1.25;;;24.70;33.80;;;;;;4962506;28;20109;-90